Cape Flattery, Washington
Current Conditions -  °F | °C
As of 3:53 AM on Sunday 21 Dec 2014 (Local Time) from KUIL Reporting Station
Overcast Overcast  
Wind Chill: 52°   Ceiling: 2400
Heat Index: 52°   Visibility: 7mi
Dew Point: 48°   Wind: 9mph
Humidity: 86%   Direction: 270°W
Pressure: 29.75"   Gusts: NA
Location:  48.3685°N, 124.623°W
Report Text: KUIL 211153Z AUTO 27008KT 7SM FEW018 BKN024 OVC046 11/09 A2975 RMK AO2 SLPNO 70106 T01110089 10117 20106 53019 $
Loading
Personal Weather Stations






























Interactive Weather Map New forecast layout! Learn more

10-Day Weather Forecast

Advertisements
Track Severe Weather on mobile